createdAt,value
2018-10-18T16:00:54.668Z,17.20
2018-10-18T16:03:22.865Z,17.20
2018-10-18T16:05:51.057Z,17.30
2018-10-18T16:08:19.245Z,17.10
2018-10-18T16:10:47.457Z,17.00
2018-10-18T16:13:15.606Z,17.00
2018-10-18T16:15:43.789Z,16.90
2018-10-18T16:18:11.968Z,16.90
2018-10-18T16:20:40.168Z,17.10
2018-10-18T16:23:08.356Z,17.00
2018-10-18T16:25:36.481Z,16.90
2018-10-18T16:28:04.672Z,16.90
2018-10-18T16:30:32.848Z,16.80
2018-10-18T16:33:01.037Z,16.70
2018-10-18T16:35:29.238Z,16.50
2018-10-18T16:37:57.463Z,16.40
2018-10-18T16:40:25.601Z,16.40
2018-10-18T16:42:53.815Z,16.20
2018-10-18T16:45:22.108Z,16.20
2018-10-18T16:47:50.408Z,16.00
2018-10-18T16:50:18.553Z,16.00
2018-10-18T16:52:46.660Z,15.90
2018-10-18T16:55:14.973Z,16.10
2018-10-18T16:57:43.128Z,16.10
2018-10-18T17:00:12.388Z,16.00
2018-10-18T17:02:40.474Z,15.90
2018-10-18T17:05:08.715Z,15.90
2018-10-18T17:07:36.923Z,15.80
2018-10-18T17:10:05.442Z,15.80
2018-10-18T17:12:33.593Z,15.80
2018-10-18T17:15:01.763Z,15.80
2018-10-18T17:17:29.924Z,15.70
2018-10-18T17:19:58.148Z,15.50
2018-10-18T17:22:26.257Z,15.30
2018-10-18T17:24:54.420Z,15.20
2018-10-18T17:27:22.686Z,15.00
2018-10-18T17:29:50.813Z,14.90
2018-10-18T17:32:19.065Z,14.90
2018-10-18T17:34:47.135Z,15.00
2018-10-18T17:37:15.312Z,14.80
2018-10-18T17:39:43.502Z,14.80
2018-10-18T17:42:11.764Z,14.60
2018-10-18T17:44:39.825Z,14.60
2018-10-18T17:47:08.063Z,14.50
2018-10-18T17:49:36.183Z,14.40
2018-10-18T17:52:04.435Z,14.30
2018-10-18T17:54:32.525Z,14.20
2018-10-18T17:57:00.717Z,14.20
2018-10-18T17:59:28.887Z,14.30
2018-10-18T18:01:57.089Z,14.20
2018-10-18T18:04:25.237Z,14.30
2018-10-18T18:06:53.502Z,14.10
2018-10-18T18:09:21.613Z,14.10
2018-10-18T18:11:49.833Z,13.90
2018-10-18T18:14:17.993Z,13.80
2018-10-18T18:16:46.163Z,13.70
2018-10-18T18:19:14.333Z,13.60
2018-10-18T18:21:42.518Z,13.60
2018-10-18T18:24:10.685Z,13.50
2018-10-18T18:26:45.265Z,13.50
2018-10-18T18:29:07.005Z,13.50
2018-10-18T18:31:35.181Z,13.60
2018-10-18T18:34:03.438Z,13.70
2018-10-18T18:36:31.645Z,13.70
2018-10-18T18:38:59.869Z,13.70
2018-10-18T18:41:28.017Z,13.60
2018-10-18T18:43:56.224Z,13.40
2018-10-18T18:46:24.433Z,13.30
2018-10-18T18:48:52.639Z,13.20
2018-10-18T18:51:20.932Z,13.10
2018-10-18T18:53:49.118Z,13.10
2018-10-18T18:56:17.281Z,13.00
2018-10-18T18:58:45.453Z,13.00
2018-10-18T19:01:13.630Z,12.90
2018-10-18T19:03:41.969Z,12.90
2018-10-18T19:06:10.153Z,12.80
2018-10-18T19:08:38.365Z,12.90
2018-10-18T19:11:06.582Z,12.80
2018-10-18T19:13:35.145Z,12.80
2018-10-18T19:16:03.270Z,12.80
2018-10-18T19:18:31.465Z,12.80
2018-10-18T19:20:59.664Z,12.80
2018-10-18T19:23:27.865Z,12.70
2018-10-18T19:25:56.124Z,12.70
2018-10-18T19:28:24.333Z,12.70
2018-10-18T19:30:52.644Z,12.70
2018-10-18T19:33:20.866Z,12.70
2018-10-18T19:35:49.035Z,12.50
2018-10-18T19:38:17.271Z,12.50
2018-10-18T19:40:45.388Z,12.50
2018-10-18T19:43:13.570Z,12.40
2018-10-18T19:45:41.752Z,12.40
2018-10-18T19:48:09.934Z,12.30
2018-10-18T19:50:38.208Z,12.20
2018-10-18T19:53:06.821Z,12.00
2018-10-18T19:55:35.023Z,11.80
2018-10-18T19:58:03.267Z,12.00
2018-10-18T20:00:31.461Z,12.00
2018-10-18T20:02:59.678Z,11.90
2018-10-18T20:05:27.861Z,11.80
2018-10-18T20:07:56.194Z,11.90
2018-10-18T20:10:24.357Z,11.70
2018-10-18T20:12:52.609Z,11.60
2018-10-18T20:15:20.758Z,11.50
2018-10-18T20:17:55.633Z,11.60
2018-10-18T20:20:23.853Z,11.60
2018-10-18T20:22:52.062Z,11.50
2018-10-18T20:25:20.331Z,11.50
2018-10-18T20:27:48.396Z,11.60
2018-10-18T20:30:16.659Z,11.70
2018-10-18T20:32:44.768Z,11.60
2018-10-18T20:35:12.929Z,11.50
2018-10-18T20:37:41.504Z,11.30
2018-10-18T20:40:12.106Z,11.30
2018-10-18T20:42:40.657Z,11.40
2018-10-18T20:45:11.024Z,11.40
2018-10-18T20:47:39.244Z,11.20
2018-10-18T20:50:07.374Z,11.30
2018-10-18T20:52:35.546Z,11.40
2018-10-18T20:55:03.695Z,11.40
2018-10-18T20:57:31.875Z,11.30
2018-10-18T21:00:00.074Z,11.30
2018-10-18T21:02:28.213Z,11.30
2018-10-18T21:04:56.378Z,11.30
2018-10-18T21:07:24.574Z,11.10
2018-10-18T21:09:52.745Z,11.10
2018-10-18T21:12:20.933Z,11.20
2018-10-18T21:14:49.085Z,11.20
2018-10-18T21:17:17.313Z,11.10
2018-10-18T21:19:45.506Z,11.10
2018-10-18T21:22:13.646Z,11.10
2018-10-18T21:24:41.798Z,11.00
2018-10-18T21:27:10.000Z,11.00
2018-10-18T21:29:38.129Z,11.00
2018-10-18T21:32:06.304Z,10.80
2018-10-18T21:34:34.480Z,10.80
2018-10-18T21:37:02.624Z,10.90
2018-10-18T21:39:34.224Z,10.90
2018-10-18T21:42:03.033Z,11.00
2018-10-18T21:44:32.757Z,10.90
2018-10-18T21:47:01.398Z,10.90
2018-10-18T21:49:30.048Z,10.90
2018-10-18T21:51:58.221Z,10.90
2018-10-18T21:54:26.912Z,10.90
2018-10-18T21:56:55.354Z,10.80
2018-10-18T21:59:23.600Z,10.80
